sensor_id;sensor_type;location;lat;lon;timestamp;P1;durP1;ratioP1;P2;durP2;ratioP2
8285;SDS011;4181;43.416;24.598;2023-01-16T00:00:32;19.20;;;12.43;;
8285;SDS011;4181;43.416;24.598;2023-01-16T00:02:59;18.53;;;12.60;;
8285;SDS011;4181;43.416;24.598;2023-01-16T00:05:24;17.77;;;11.97;;
8285;SDS011;4181;43.416;24.598;2023-01-16T00:07:51;18.07;;;12.50;;
8285;SDS011;4181;43.416;24.598;2023-01-16T00:10:16;25.70;;;17.43;;
8285;SDS011;4181;43.416;24.598;2023-01-16T00:12:42;23.60;;;13.07;;
8285;SDS011;4181;43.416;24.598;2023-01-16T00:15:08;20.20;;;13.97;;
8285;SDS011;4181;43.416;24.598;2023-01-16T00:17:34;19.63;;;13.50;;
8285;SDS011;4181;43.416;24.598;2023-01-16T00:19:59;18.33;;;11.83;;
8285;SDS011;4181;43.416;24.598;2023-01-16T00:22:24;18.67;;;12.07;;
8285;SDS011;4181;43.416;24.598;2023-01-16T00:24:50;17.77;;;13.00;;
8285;SDS011;4181;43.416;24.598;2023-01-16T00:27:15;16.23;;;11.67;;
8285;SDS011;4181;43.416;24.598;2023-01-16T00:29:41;21.03;;;13.23;;
8285;SDS011;4181;43.416;24.598;2023-01-16T00:32:06;20.10;;;13.13;;
8285;SDS011;4181;43.416;24.598;2023-01-16T00:34:32;21.20;;;12.07;;
8285;SDS011;4181;43.416;24.598;2023-01-16T00:36:57;21.13;;;13.60;;
8285;SDS011;4181;43.416;24.598;2023-01-16T00:39:22;20.80;;;13.77;;
8285;SDS011;4181;43.416;24.598;2023-01-16T00:41:48;19.67;;;13.47;;
8285;SDS011;4181;43.416;24.598;2023-01-16T00:44:13;22.90;;;13.20;;
8285;SDS011;4181;43.416;24.598;2023-01-16T00:46:41;17.13;;;12.47;;
8285;SDS011;4181;43.416;24.598;2023-01-16T00:49:06;20.20;;;12.67;;
8285;SDS011;4181;43.416;24.598;2023-01-16T00:51:32;19.90;;;13.27;;
8285;SDS011;4181;43.416;24.598;2023-01-16T00:53:57;18.37;;;12.50;;
8285;SDS011;4181;43.416;24.598;2023-01-16T00:56:22;16.43;;;12.37;;
8285;SDS011;4181;43.416;24.598;2023-01-16T00:58:48;17.80;;;11.97;;
8285;SDS011;4181;43.416;24.598;2023-01-16T01:01:13;16.83;;;11.37;;
8285;SDS011;4181;43.416;24.598;2023-01-16T01:03:39;20.77;;;14.30;;
8285;SDS011;4181;43.416;24.598;2023-01-16T01:06:05;19.00;;;13.30;;
8285;SDS011;4181;43.416;24.598;2023-01-16T01:08:36;22.70;;;14.17;;
8285;SDS011;4181;43.416;24.598;2023-01-16T01:11:08;19.77;;;13.30;;
8285;SDS011;4181;43.416;24.598;2023-01-16T01:13:36;22.27;;;13.27;;
8285;SDS011;4181;43.416;24.598;2023-01-16T01:16:03;20.70;;;14.27;;
8285;SDS011;4181;43.416;24.598;2023-01-16T01:18:28;18.70;;;12.83;;
8285;SDS011;4181;43.416;24.598;2023-01-16T01:20:54;30.60;;;23.30;;
8285;SDS011;4181;43.416;24.598;2023-01-16T01:23:19;19.17;;;13.27;;
8285;SDS011;4181;43.416;24.598;2023-01-16T01:25:45;18.27;;;12.67;;
8285;SDS011;4181;43.416;24.598;2023-01-16T01:28:10;24.97;;;17.70;;
8285;SDS011;4181;43.416;24.598;2023-01-16T01:30:36;19.93;;;13.00;;
8285;SDS011;4181;43.416;24.598;2023-01-16T01:33:03;21.60;;;13.70;;
8285;SDS011;4181;43.416;24.598;2023-01-16T01:35:28;19.13;;;12.53;;
8285;SDS011;4181;43.416;24.598;2023-01-16T01:37:54;21.07;;;14.73;;
8285;SDS011;4181;43.416;24.598;2023-01-16T01:40:19;23.73;;;15.07;;
8285;SDS011;4181;43.416;24.598;2023-01-16T01:42:45;21.73;;;13.50;;
8285;SDS011;4181;43.416;24.598;2023-01-16T01:50:30;21.33;;;13.63;;
8285;SDS011;4181;43.416;24.598;2023-01-16T01:52:59;29.20;;;14.90;;
8285;SDS011;4181;43.416;24.598;2023-01-16T01:55:27;21.60;;;13.10;;
8285;SDS011;4181;43.416;24.598;2023-01-16T01:57:54;23.57;;;14.27;;
8285;SDS011;4181;43.416;24.598;2023-01-16T02:00:23;29.10;;;14.53;;
8285;SDS011;4181;43.416;24.598;2023-01-16T02:02:53;23.53;;;14.17;;
8285;SDS011;4181;43.416;24.598;2023-01-16T02:05:28;25.50;;;14.27;;
8285;SDS011;4181;43.416;24.598;2023-01-16T02:08:01;27.07;;;16.07;;
8285;SDS011;4181;43.416;24.598;2023-01-16T02:10:39;26.40;;;15.07;;
8285;SDS011;4181;43.416;24.598;2023-01-16T02:13:08;28.17;;;15.30;;
8285;SDS011;4181;43.416;24.598;2023-01-16T02:15:34;22.77;;;14.77;;
8285;SDS011;4181;43.416;24.598;2023-01-16T02:18:01;31.57;;;15.73;;
8285;SDS011;4181;43.416;24.598;2023-01-16T02:21:48;28.97;;;13.87;;
8285;SDS011;4181;43.416;24.598;2023-01-16T02:26:31;30.53;;;15.83;;
8285;SDS011;4181;43.416;24.598;2023-01-16T02:42:45;29.17;;;15.37;;
8285;SDS011;4181;43.416;24.598;2023-01-16T02:45:18;28.43;;;16.90;;
8285;SDS011;4181;43.416;24.598;2023-01-16T02:48:21;25.37;;;16.00;;
8285;SDS011;4181;43.416;24.598;2023-01-16T02:51:34;24.00;;;15.10;;
8285;SDS011;4181;43.416;24.598;2023-01-16T02:56:53;28.90;;;15.67;;
8285;SDS011;4181;43.416;24.598;2023-01-16T02:59:29;28.50;;;15.90;;
8285;SDS011;4181;43.416;24.598;2023-01-16T03:01:55;37.90;;;17.60;;
8285;SDS011;4181;43.416;24.598;2023-01-16T03:16:22;35.20;;;17.30;;
8285;SDS011;4181;43.416;24.598;2023-01-16T03:19:00;39.27;;;19.57;;
8285;SDS011;4181;43.416;24.598;2023-01-16T03:27:10;50.83;;;17.57;;
8285;SDS011;4181;43.416;24.598;2023-01-16T03:32:46;47.83;;;24.20;;
8285;SDS011;4181;43.416;24.598;2023-01-16T03:35:20;41.47;;;21.87;;
8285;SDS011;4181;43.416;24.598;2023-01-16T03:37:52;32.60;;;18.03;;
8285;SDS011;4181;43.416;24.598;2023-01-16T03:40:23;31.57;;;17.20;;
8285;SDS011;4181;43.416;24.598;2023-01-16T03:42:52;31.83;;;17.10;;
8285;SDS011;4181;43.416;24.598;2023-01-16T03:45:30;37.97;;;18.50;;
8285;SDS011;4181;43.416;24.598;2023-01-16T03:48:11;31.20;;;17.53;;
8285;SDS011;4181;43.416;24.598;2023-01-16T03:50:49;35.60;;;17.07;;
8285;SDS011;4181;43.416;24.598;2023-01-16T03:53:18;24.93;;;15.60;;
8285;SDS011;4181;43.416;24.598;2023-01-16T03:56:33;38.83;;;16.07;;
8285;SDS011;4181;43.416;24.598;2023-01-16T03:58:42;31.43;;;17.03;;
8285;SDS011;4181;43.416;24.598;2023-01-16T04:06:59;32.10;;;19.37;;
8285;SDS011;4181;43.416;24.598;2023-01-16T04:09:52;19.63;;;12.07;;
8285;SDS011;4181;43.416;24.598;2023-01-16T04:12:15;34.03;;;18.33;;
8285;SDS011;4181;43.416;24.598;2023-01-16T04:14:47;17.97;;;11.60;;
8285;SDS011;4181;43.416;24.598;2023-01-16T04:17:17;14.43;;;9.03;;
8285;SDS011;4181;43.416;24.598;2023-01-16T04:19:43;15.50;;;10.10;;
8285;SDS011;4181;43.416;24.598;2023-01-16T04:22:17;18.77;;;12.30;;
8285;SDS011;4181;43.416;24.598;2023-01-16T04:24:45;28.40;;;16.27;;
8285;SDS011;4181;43.416;24.598;2023-01-16T04:27:11;26.87;;;16.00;;
8285;SDS011;4181;43.416;24.598;2023-01-16T04:29:36;36.63;;;18.47;;
8285;SDS011;4181;43.416;24.598;2023-01-16T04:32:02;30.80;;;18.23;;
8285;SDS011;4181;43.416;24.598;2023-01-16T04:34:27;24.33;;;14.87;;
8285;SDS011;4181;43.416;24.598;2023-01-16T04:36:53;21.40;;;15.23;;
8285;SDS011;4181;43.416;24.598;2023-01-16T04:39:18;26.40;;;16.77;;
8285;SDS011;4181;43.416;24.598;2023-01-16T04:41:44;23.37;;;15.13;;
8285;SDS011;4181;43.416;24.598;2023-01-16T04:44:15;24.07;;;16.73;;
8285;SDS011;4181;43.416;24.598;2023-01-16T04:46:40;22.40;;;16.10;;
8285;SDS011;4181;43.416;24.598;2023-01-16T04:49:06;21.00;;;13.67;;
8285;SDS011;4181;43.416;24.598;2023-01-16T04:51:31;21.97;;;13.73;;
8285;SDS011;4181;43.416;24.598;2023-01-16T04:53:57;22.77;;;14.63;;
8285;SDS011;4181;43.416;24.598;2023-01-16T04:56:23;27.03;;;16.13;;
8285;SDS011;4181;43.416;24.598;2023-01-16T04:58:48;23.10;;;15.60;;
8285;SDS011;4181;43.416;24.598;2023-01-16T05:01:16;27.80;;;16.77;;
8285;SDS011;4181;43.416;24.598;2023-01-16T05:03:42;27.60;;;17.93;;
8285;SDS011;4181;43.416;24.598;2023-01-16T05:06:08;31.17;;;18.33;;
8285;SDS011;4181;43.416;24.598;2023-01-16T05:08:33;25.50;;;16.53;;
8285;SDS011;4181;43.416;24.598;2023-01-16T05:10:59;28.93;;;17.37;;
8285;SDS011;4181;43.416;24.598;2023-01-16T05:13:26;26.23;;;16.23;;
8285;SDS011;4181;43.416;24.598;2023-01-16T05:15:52;23.87;;;15.37;;
8285;SDS011;4181;43.416;24.598;2023-01-16T05:18:17;22.10;;;14.60;;
8285;SDS011;4181;43.416;24.598;2023-01-16T05:20:43;21.67;;;15.03;;
8285;SDS011;4181;43.416;24.598;2023-01-16T05:23:08;32.17;;;16.60;;
8285;SDS011;4181;43.416;24.598;2023-01-16T05:25:35;41.63;;;23.70;;
8285;SDS011;4181;43.416;24.598;2023-01-16T05:28:01;49.27;;;26.53;;
8285;SDS011;4181;43.416;24.598;2023-01-16T05:30:27;51.17;;;29.00;;
8285;SDS011;4181;43.416;24.598;2023-01-16T05:32:53;107.07;;;62.97;;
8285;SDS011;4181;43.416;24.598;2023-01-16T05:35:18;53.47;;;31.20;;
8285;SDS011;4181;43.416;24.598;2023-01-16T05:37:45;48.80;;;26.57;;
8285;SDS011;4181;43.416;24.598;2023-01-16T05:40:11;61.80;;;35.80;;
8285;SDS011;4181;43.416;24.598;2023-01-16T05:42:37;172.07;;;133.47;;
8285;SDS011;4181;43.416;24.598;2023-01-16T05:45:03;111.97;;;94.70;;
8285;SDS011;4181;43.416;24.598;2023-01-16T05:47:29;75.57;;;53.33;;
8285;SDS011;4181;43.416;24.598;2023-01-16T05:49:55;36.50;;;19.00;;
8285;SDS011;4181;43.416;24.598;2023-01-16T05:52:23;38.93;;;21.23;;
8285;SDS011;4181;43.416;24.598;2023-01-16T05:54:50;34.20;;;19.43;;
8285;SDS011;4181;43.416;24.598;2023-01-16T05:57:16;50.97;;;21.67;;
8285;SDS011;4181;43.416;24.598;2023-01-16T05:59:42;88.53;;;33.33;;
8285;SDS011;4181;43.416;24.598;2023-01-16T06:02:10;76.37;;;31.33;;
8285;SDS011;4181;43.416;24.598;2023-01-16T06:04:36;68.23;;;30.27;;
8285;SDS011;4181;43.416;24.598;2023-01-16T06:07:02;69.70;;;35.77;;
8285;SDS011;4181;43.416;24.598;2023-01-16T06:09:28;78.67;;;39.33;;
8285;SDS011;4181;43.416;24.598;2023-01-16T06:11:53;43.47;;;23.97;;
8285;SDS011;4181;43.416;24.598;2023-01-16T06:14:19;41.97;;;26.17;;
8285;SDS011;4181;43.416;24.598;2023-01-16T06:16:44;47.03;;;28.17;;
8285;SDS011;4181;43.416;24.598;2023-01-16T06:19:10;44.77;;;31.30;;
8285;SDS011;4181;43.416;24.598;2023-01-16T06:21:35;24.57;;;17.83;;
8285;SDS011;4181;43.416;24.598;2023-01-16T06:24:02;36.43;;;25.60;;
8285;SDS011;4181;43.416;24.598;2023-01-16T06:26:28;50.60;;;32.63;;
8285;SDS011;4181;43.416;24.598;2023-01-16T06:28:53;65.53;;;40.20;;
8285;SDS011;4181;43.416;24.598;2023-01-16T06:31:22;121.07;;;80.33;;
8285;SDS011;4181;43.416;24.598;2023-01-16T06:33:48;86.87;;;57.77;;
8285;SDS011;4181;43.416;24.598;2023-01-16T06:36:13;58.60;;;36.20;;
8285;SDS011;4181;43.416;24.598;2023-01-16T06:38:39;135.90;;;97.57;;
8285;SDS011;4181;43.416;24.598;2023-01-16T06:41:04;149.60;;;106.30;;
8285;SDS011;4181;43.416;24.598;2023-01-16T06:43:30;109.97;;;75.70;;
8285;SDS011;4181;43.416;24.598;2023-01-16T06:45:56;136.50;;;87.90;;
8285;SDS011;4181;43.416;24.598;2023-01-16T06:48:22;105.87;;;69.07;;
8285;SDS011;4181;43.416;24.598;2023-01-16T06:50:47;65.93;;;45.30;;
8285;SDS011;4181;43.416;24.598;2023-01-16T06:53:13;55.97;;;36.87;;
8285;SDS011;4181;43.416;24.598;2023-01-16T06:55:39;49.17;;;31.83;;
8285;SDS011;4181;43.416;24.598;2023-01-16T06:58:06;47.67;;;32.63;;
8285;SDS011;4181;43.416;24.598;2023-01-16T07:00:32;42.97;;;29.73;;
8285;SDS011;4181;43.416;24.598;2023-01-16T07:03:01;51.70;;;31.53;;
8285;SDS011;4181;43.416;24.598;2023-01-16T07:05:28;41.60;;;29.47;;
8285;SDS011;4181;43.416;24.598;2023-01-16T07:07:54;42.80;;;26.13;;
8285;SDS011;4181;43.416;24.598;2023-01-16T07:10:20;33.90;;;22.57;;
8285;SDS011;4181;43.416;24.598;2023-01-16T07:12:47;42.00;;;26.03;;
8285;SDS011;4181;43.416;24.598;2023-01-16T07:15:16;47.83;;;28.57;;
8285;SDS011;4181;43.416;24.598;2023-01-16T07:18:00;47.57;;;28.30;;
8285;SDS011;4181;43.416;24.598;2023-01-16T07:20:47;42.40;;;26.03;;
8285;SDS011;4181;43.416;24.598;2023-01-16T07:23:38;49.03;;;26.87;;
8285;SDS011;4181;43.416;24.598;2023-01-16T07:26:07;38.93;;;26.20;;
8285;SDS011;4181;43.416;24.598;2023-01-16T07:28:33;41.07;;;23.77;;
8285;SDS011;4181;43.416;24.598;2023-01-16T07:31:00;36.20;;;22.33;;
8285;SDS011;4181;43.416;24.598;2023-01-16T07:33:28;32.87;;;22.77;;
8285;SDS011;4181;43.416;24.598;2023-01-16T07:35:54;32.53;;;19.83;;
8285;SDS011;4181;43.416;24.598;2023-01-16T07:38:19;34.20;;;22.33;;
8285;SDS011;4181;43.416;24.598;2023-01-16T07:40:45;37.77;;;25.63;;
8285;SDS011;4181;43.416;24.598;2023-01-16T07:43:10;33.07;;;19.90;;
8285;SDS011;4181;43.416;24.598;2023-01-16T07:45:37;24.93;;;18.03;;
8285;SDS011;4181;43.416;24.598;2023-01-16T07:48:04;31.60;;;20.60;;
8285;SDS011;4181;43.416;24.598;2023-01-16T07:50:29;36.97;;;24.23;;
8285;SDS011;4181;43.416;24.598;2023-01-16T07:52:55;35.67;;;20.60;;
8285;SDS011;4181;43.416;24.598;2023-01-16T07:55:21;30.23;;;20.43;;
8285;SDS011;4181;43.416;24.598;2023-01-16T07:57:46;33.13;;;21.03;;
8285;SDS011;4181;43.416;24.598;2023-01-16T08:00:12;32.10;;;22.23;;
8285;SDS011;4181;43.416;24.598;2023-01-16T08:02:39;32.40;;;23.67;;
8285;SDS011;4181;43.416;24.598;2023-01-16T08:05:08;49.33;;;28.80;;
8285;SDS011;4181;43.416;24.598;2023-01-16T08:07:37;35.00;;;24.00;;
8285;SDS011;4181;43.416;24.598;2023-01-16T08:10:03;29.03;;;20.87;;
8285;SDS011;4181;43.416;24.598;2023-01-16T08:12:29;33.17;;;25.57;;
8285;SDS011;4181;43.416;24.598;2023-01-16T08:14:55;30.73;;;21.90;;
8285;SDS011;4181;43.416;24.598;2023-01-16T08:17:20;30.70;;;24.20;;
8285;SDS011;4181;43.416;24.598;2023-01-16T08:19:46;37.67;;;27.20;;
8285;SDS011;4181;43.416;24.598;2023-01-16T08:22:12;38.67;;;28.87;;
8285;SDS011;4181;43.416;24.598;2023-01-16T08:24:38;40.93;;;29.27;;
8285;SDS011;4181;43.416;24.598;2023-01-16T08:27:03;32.40;;;23.17;;
8285;SDS011;4181;43.416;24.598;2023-01-16T08:29:29;34.67;;;24.70;;
8285;SDS011;4181;43.416;24.598;2023-01-16T08:31:55;27.77;;;20.20;;
8285;SDS011;4181;43.416;24.598;2023-01-16T08:34:20;26.33;;;19.93;;
8285;SDS011;4181;43.416;24.598;2023-01-16T08:36:46;21.87;;;17.43;;
8285;SDS011;4181;43.416;24.598;2023-01-16T08:39:11;27.10;;;17.07;;
8285;SDS011;4181;43.416;24.598;2023-01-16T08:41:37;21.73;;;17.43;;
8285;SDS011;4181;43.416;24.598;2023-01-16T08:44:21;20.90;;;16.10;;
8285;SDS011;4181;43.416;24.598;2023-01-16T08:47:12;24.57;;;19.33;;
8285;SDS011;4181;43.416;24.598;2023-01-16T08:50:11;27.57;;;16.73;;
8285;SDS011;4181;43.416;24.598;2023-01-16T08:52:56;27.47;;;18.80;;
8285;SDS011;4181;43.416;24.598;2023-01-16T08:55:21;29.07;;;18.20;;
8285;SDS011;4181;43.416;24.598;2023-01-16T08:57:47;26.27;;;18.17;;
8285;SDS011;4181;43.416;24.598;2023-01-16T09:00:12;30.33;;;19.80;;
8285;SDS011;4181;43.416;24.598;2023-01-16T09:02:38;35.73;;;23.87;;
8285;SDS011;4181;43.416;24.598;2023-01-16T09:05:04;37.77;;;25.47;;
8285;SDS011;4181;43.416;24.598;2023-01-16T09:07:30;40.67;;;30.03;;
8285;SDS011;4181;43.416;24.598;2023-01-16T09:09:56;42.20;;;29.20;;
8285;SDS011;4181;43.416;24.598;2023-01-16T09:12:21;45.63;;;28.77;;
8285;SDS011;4181;43.416;24.598;2023-01-16T09:15:06;35.43;;;26.57;;
8285;SDS011;4181;43.416;24.598;2023-01-16T09:17:32;41.67;;;23.33;;
8285;SDS011;4181;43.416;24.598;2023-01-16T09:19:57;34.90;;;25.27;;
8285;SDS011;4181;43.416;24.598;2023-01-16T09:22:26;43.50;;;33.00;;
8285;SDS011;4181;43.416;24.598;2023-01-16T09:24:53;48.37;;;35.03;;
8285;SDS011;4181;43.416;24.598;2023-01-16T09:27:19;57.97;;;40.57;;
8285;SDS011;4181;43.416;24.598;2023-01-16T09:29:45;65.20;;;38.87;;
8285;SDS011;4181;43.416;24.598;2023-01-16T09:32:10;68.77;;;45.77;;
8285;SDS011;4181;43.416;24.598;2023-01-16T09:34:37;57.50;;;37.23;;
8285;SDS011;4181;43.416;24.598;2023-01-16T09:37:03;51.60;;;33.87;;
8285;SDS011;4181;43.416;24.598;2023-01-16T09:39:32;54.80;;;34.40;;
8285;SDS011;4181;43.416;24.598;2023-01-16T09:44:56;53.37;;;32.27;;
8285;SDS011;4181;43.416;24.598;2023-01-16T09:47:29;53.13;;;30.13;;
8285;SDS011;4181;43.416;24.598;2023-01-16T09:52:31;45.53;;;30.37;;
8285;SDS011;4181;43.416;24.598;2023-01-16T09:55:27;89.30;;;42.97;;
8285;SDS011;4181;43.416;24.598;2023-01-16T09:58:21;77.17;;;37.17;;
8285;SDS011;4181;43.416;24.598;2023-01-16T10:01:19;60.67;;;33.60;;
8285;SDS011;4181;43.416;24.598;2023-01-16T10:04:03;60.80;;;34.13;;
8285;SDS011;4181;43.416;24.598;2023-01-16T10:12:02;61.17;;;38.37;;
8285;SDS011;4181;43.416;24.598;2023-01-16T10:20:29;68.73;;;40.00;;
8285;SDS011;4181;43.416;24.598;2023-01-16T10:29:17;70.67;;;43.83;;
8285;SDS011;4181;43.416;24.598;2023-01-16T10:31:42;106.87;;;61.77;;
8285;SDS011;4181;43.416;24.598;2023-01-16T10:34:15;74.47;;;42.70;;
8285;SDS011;4181;43.416;24.598;2023-01-16T10:36:47;71.77;;;46.73;;
8285;SDS011;4181;43.416;24.598;2023-01-16T10:39:16;67.90;;;40.77;;
8285;SDS011;4181;43.416;24.598;2023-01-16T10:41:48;65.23;;;38.53;;
8285;SDS011;4181;43.416;24.598;2023-01-16T10:44:35;70.47;;;42.30;;
8285;SDS011;4181;43.416;24.598;2023-01-16T10:47:28;79.70;;;43.63;;
8285;SDS011;4181;43.416;24.598;2023-01-16T10:50:15;61.83;;;36.77;;
8285;SDS011;4181;43.416;24.598;2023-01-16T10:52:42;50.73;;;31.07;;
8285;SDS011;4181;43.416;24.598;2023-01-16T10:55:09;49.40;;;29.27;;
8285;SDS011;4181;43.416;24.598;2023-01-16T10:57:53;57.83;;;36.10;;
8285;SDS011;4181;43.416;24.598;2023-01-16T11:00:26;53.77;;;34.50;;
8285;SDS011;4181;43.416;24.598;2023-01-16T11:03:14;45.47;;;31.47;;
8285;SDS011;4181;43.416;24.598;2023-01-16T11:05:43;44.90;;;29.50;;
8285;SDS011;4181;43.416;24.598;2023-01-16T11:10:34;39.50;;;30.60;;
8285;SDS011;4181;43.416;24.598;2023-01-16T11:13:00;56.63;;;40.20;;
8285;SDS011;4181;43.416;24.598;2023-01-16T11:16:01;61.83;;;42.23;;
8285;SDS011;4181;43.416;24.598;2023-01-16T11:18:45;56.53;;;43.23;;
8285;SDS011;4181;43.416;24.598;2023-01-16T11:21:27;61.87;;;43.77;;
8285;SDS011;4181;43.416;24.598;2023-01-16T11:23:59;81.47;;;50.13;;
8285;SDS011;4181;43.416;24.598;2023-01-16T11:26:28;73.47;;;48.10;;
8285;SDS011;4181;43.416;24.598;2023-01-16T11:28:56;75.13;;;50.23;;
8285;SDS011;4181;43.416;24.598;2023-01-16T11:31:26;73.50;;;48.03;;
8285;SDS011;4181;43.416;24.598;2023-01-16T11:34:00;81.63;;;49.73;;
8285;SDS011;4181;43.416;24.598;2023-01-16T11:36:33;72.73;;;48.97;;
8285;SDS011;4181;43.416;24.598;2023-01-16T11:39:00;75.30;;;47.57;;
8285;SDS011;4181;43.416;24.598;2023-01-16T11:41:28;87.33;;;54.07;;
8285;SDS011;4181;43.416;24.598;2023-01-16T11:47:20;73.60;;;48.20;;
8285;SDS011;4181;43.416;24.598;2023-01-16T11:49:49;61.23;;;42.77;;
8285;SDS011;4181;43.416;24.598;2023-01-16T11:52:17;85.03;;;53.27;;
8285;SDS011;4181;43.416;24.598;2023-01-16T11:54:54;76.73;;;49.50;;
8285;SDS011;4181;43.416;24.598;2023-01-16T12:08:32;97.77;;;57.17;;
8285;SDS011;4181;43.416;24.598;2023-01-16T12:11:07;86.17;;;52.37;;
8285;SDS011;4181;43.416;24.598;2023-01-16T12:33:28;124.57;;;66.97;;
8285;SDS011;4181;43.416;24.598;2023-01-16T12:39:16;150.27;;;86.53;;
8285;SDS011;4181;43.416;24.598;2023-01-16T12:45:07;117.33;;;71.30;;
8285;SDS011;4181;43.416;24.598;2023-01-16T12:58:29;141.37;;;82.10;;
8285;SDS011;4181;43.416;24.598;2023-01-16T13:01:12;141.67;;;79.57;;
8285;SDS011;4181;43.416;24.598;2023-01-16T13:03:53;136.77;;;77.60;;
8285;SDS011;4181;43.416;24.598;2023-01-16T13:06:32;162.93;;;95.17;;
8285;SDS011;4181;43.416;24.598;2023-01-16T13:09:04;160.70;;;100.53;;
8285;SDS011;4181;43.416;24.598;2023-01-16T13:11:49;161.03;;;90.60;;
8285;SDS011;4181;43.416;24.598;2023-01-16T13:14:41;142.90;;;82.13;;
8285;SDS011;4181;43.416;24.598;2023-01-16T13:17:11;159.17;;;90.70;;
8285;SDS011;4181;43.416;24.598;2023-01-16T13:19:44;122.40;;;66.93;;
8285;SDS011;4181;43.416;24.598;2023-01-16T13:22:14;141.53;;;83.00;;
8285;SDS011;4181;43.416;24.598;2023-01-16T13:25:04;122.67;;;71.73;;
8285;SDS011;4181;43.416;24.598;2023-01-16T13:27:40;119.47;;;71.63;;
8285;SDS011;4181;43.416;24.598;2023-01-16T13:30:14;191.50;;;107.37;;
8285;SDS011;4181;43.416;24.598;2023-01-16T13:32:45;179.97;;;92.60;;
8285;SDS011;4181;43.416;24.598;2023-01-16T13:41:25;97.90;;;53.93;;
8285;SDS011;4181;43.416;24.598;2023-01-16T13:43:59;98.57;;;50.50;;
8285;SDS011;4181;43.416;24.598;2023-01-16T13:46:44;116.43;;;58.80;;
8285;SDS011;4181;43.416;24.598;2023-01-16T13:49:21;76.27;;;47.53;;
8285;SDS011;4181;43.416;24.598;2023-01-16T13:51:49;86.57;;;54.30;;
8285;SDS011;4181;43.416;24.598;2023-01-16T13:54:24;67.33;;;42.47;;
8285;SDS011;4181;43.416;24.598;2023-01-16T13:57:15;111.50;;;57.97;;
8285;SDS011;4181;43.416;24.598;2023-01-16T13:59:47;86.20;;;46.23;;
8285;SDS011;4181;43.416;24.598;2023-01-16T14:10:44;55.10;;;28.13;;
8285;SDS011;4181;43.416;24.598;2023-01-16T14:13:24;37.00;;;23.13;;
8285;SDS011;4181;43.416;24.598;2023-01-16T14:15:58;61.97;;;36.67;;
8285;SDS011;4181;43.416;24.598;2023-01-16T14:24:03;19.00;;;12.83;;
8285;SDS011;4181;43.416;24.598;2023-01-16T14:34:27;12.77;;;10.00;;
8285;SDS011;4181;43.416;24.598;2023-01-16T14:37:15;19.77;;;14.77;;
8285;SDS011;4181;43.416;24.598;2023-01-16T14:42:27;25.23;;;16.63;;
8285;SDS011;4181;43.416;24.598;2023-01-16T14:45:22;21.37;;;13.80;;
8285;SDS011;4181;43.416;24.598;2023-01-16T14:50:54;10.53;;;7.97;;
8285;SDS011;4181;43.416;24.598;2023-01-16T14:53:41;17.30;;;10.20;;
8285;SDS011;4181;43.416;24.598;2023-01-16T14:56:27;19.97;;;14.60;;
8285;SDS011;4181;43.416;24.598;2023-01-16T15:04:49;14.63;;;11.07;;
8285;SDS011;4181;43.416;24.598;2023-01-16T15:12:42;22.07;;;14.00;;
8285;SDS011;4181;43.416;24.598;2023-01-16T15:15:19;36.43;;;24.60;;
8285;SDS011;4181;43.416;24.598;2023-01-16T15:17:49;19.83;;;13.67;;
8285;SDS011;4181;43.416;24.598;2023-01-16T15:20:36;16.63;;;12.23;;
8285;SDS011;4181;43.416;24.598;2023-01-16T15:23:30;14.90;;;10.87;;
8285;SDS011;4181;43.416;24.598;2023-01-16T15:30:59;17.93;;;12.90;;
8285;SDS011;4181;43.416;24.598;2023-01-16T15:33:30;19.00;;;14.60;;
8285;SDS011;4181;43.416;24.598;2023-01-16T15:36:56;21.10;;;14.10;;
8285;SDS011;4181;43.416;24.598;2023-01-16T15:44:40;28.30;;;18.53;;
8285;SDS011;4181;43.416;24.598;2023-01-16T15:52:50;47.20;;;30.27;;
8285;SDS011;4181;43.416;24.598;2023-01-16T15:55:20;47.20;;;33.17;;
8285;SDS011;4181;43.416;24.598;2023-01-16T15:57:50;50.27;;;31.70;;
8285;SDS011;4181;43.416;24.598;2023-01-16T16:00:23;67.77;;;37.83;;
8285;SDS011;4181;43.416;24.598;2023-01-16T16:02:50;23.13;;;15.10;;
8285;SDS011;4181;43.416;24.598;2023-01-16T16:05:31;19.20;;;14.83;;
8285;SDS011;4181;43.416;24.598;2023-01-16T16:07:57;20.20;;;14.33;;
8285;SDS011;4181;43.416;24.598;2023-01-16T16:10:24;27.03;;;14.10;;
8285;SDS011;4181;43.416;24.598;2023-01-16T16:13:09;17.00;;;13.43;;
8285;SDS011;4181;43.416;24.598;2023-01-16T16:15:51;17.60;;;12.73;;
8285;SDS011;4181;43.416;24.598;2023-01-16T16:18:37;21.77;;;12.77;;
8285;SDS011;4181;43.416;24.598;2023-01-16T16:21:04;19.87;;;15.63;;
8285;SDS011;4181;43.416;24.598;2023-01-16T16:23:32;24.93;;;15.97;;
8285;SDS011;4181;43.416;24.598;2023-01-16T16:25:59;20.70;;;16.83;;
8285;SDS011;4181;43.416;24.598;2023-01-16T16:31:15;29.90;;;22.30;;
8285;SDS011;4181;43.416;24.598;2023-01-16T16:33:56;16.10;;;10.73;;
8285;SDS011;4181;43.416;24.598;2023-01-16T16:36:25;16.60;;;12.87;;
8285;SDS011;4181;43.416;24.598;2023-01-16T16:38:51;22.67;;;14.70;;
8285;SDS011;4181;43.416;24.598;2023-01-16T16:44:23;80.80;;;43.90;;
8285;SDS011;4181;43.416;24.598;2023-01-16T16:46:49;71.87;;;38.33;;
8285;SDS011;4181;43.416;24.598;2023-01-16T16:51:41;19.27;;;11.90;;
8285;SDS011;4181;43.416;24.598;2023-01-16T16:54:14;16.33;;;11.57;;
8285;SDS011;4181;43.416;24.598;2023-01-16T16:56:43;15.00;;;12.47;;
8285;SDS011;4181;43.416;24.598;2023-01-16T16:59:17;85.60;;;60.73;;
8285;SDS011;4181;43.416;24.598;2023-01-16T17:01:50;102.73;;;72.93;;
8285;SDS011;4181;43.416;24.598;2023-01-16T17:04:17;41.40;;;30.63;;
8285;SDS011;4181;43.416;24.598;2023-01-16T17:06:44;45.43;;;34.10;;
8285;SDS011;4181;43.416;24.598;2023-01-16T17:09:11;87.50;;;63.10;;
8285;SDS011;4181;43.416;24.598;2023-01-16T17:11:39;93.33;;;66.83;;
8285;SDS011;4181;43.416;24.598;2023-01-16T17:14:06;90.80;;;64.33;;
8285;SDS011;4181;43.416;24.598;2023-01-16T17:16:32;90.70;;;66.10;;
8285;SDS011;4181;43.416;24.598;2023-01-16T17:19:00;105.33;;;68.77;;
8285;SDS011;4181;43.416;24.598;2023-01-16T17:21:28;114.67;;;85.00;;
8285;SDS011;4181;43.416;24.598;2023-01-16T17:23:53;180.20;;;129.80;;
8285;SDS011;4181;43.416;24.598;2023-01-16T17:26:18;57.10;;;37.13;;
8285;SDS011;4181;43.416;24.598;2023-01-16T17:28:44;59.83;;;36.30;;
8285;SDS011;4181;43.416;24.598;2023-01-16T17:31:13;69.80;;;37.30;;
8285;SDS011;4181;43.416;24.598;2023-01-16T17:33:41;100.57;;;59.23;;
8285;SDS011;4181;43.416;24.598;2023-01-16T17:36:09;74.17;;;50.87;;
8285;SDS011;4181;43.416;24.598;2023-01-16T17:38:41;53.60;;;26.93;;
8285;SDS011;4181;43.416;24.598;2023-01-16T17:41:14;37.57;;;22.93;;
8285;SDS011;4181;43.416;24.598;2023-01-16T17:43:46;42.13;;;23.77;;
8285;SDS011;4181;43.416;24.598;2023-01-16T17:46:30;36.63;;;23.27;;
8285;SDS011;4181;43.416;24.598;2023-01-16T17:48:56;37.13;;;23.67;;
8285;SDS011;4181;43.416;24.598;2023-01-16T17:51:21;38.60;;;23.87;;
8285;SDS011;4181;43.416;24.598;2023-01-16T17:53:49;41.27;;;24.87;;
8285;SDS011;4181;43.416;24.598;2023-01-16T17:56:15;49.20;;;29.57;;
8285;SDS011;4181;43.416;24.598;2023-01-16T17:58:43;47.93;;;27.40;;
8285;SDS011;4181;43.416;24.598;2023-01-16T18:01:13;50.97;;;29.77;;
8285;SDS011;4181;43.416;24.598;2023-01-16T18:03:43;38.53;;;25.87;;
8285;SDS011;4181;43.416;24.598;2023-01-16T18:06:24;59.33;;;35.20;;
8285;SDS011;4181;43.416;24.598;2023-01-16T18:08:50;50.73;;;31.40;;
8285;SDS011;4181;43.416;24.598;2023-01-16T18:11:16;45.67;;;28.53;;